createdAt,value
2018-05-27T00:01:27.327Z,12.90
2018-05-27T00:03:54.928Z,12.80
2018-05-27T00:06:22.555Z,12.70
2018-05-27T00:08:50.292Z,12.50
2018-05-27T00:11:18.160Z,12.50
2018-05-27T00:13:45.776Z,12.60
2018-05-27T00:16:13.744Z,12.60
2018-05-27T00:18:41.360Z,12.50
2018-05-27T00:21:09.032Z,12.50
2018-05-27T00:23:36.869Z,12.50
2018-05-27T00:26:04.424Z,12.30
2018-05-27T00:28:31.980Z,12.40
2018-05-27T00:30:59.852Z,12.40
2018-05-27T00:33:27.719Z,12.30
2018-05-27T00:35:55.298Z,12.30
2018-05-27T00:38:23.128Z,12.10
2018-05-27T00:40:50.908Z,11.90
2018-05-27T00:43:18.668Z,11.70
2018-05-27T00:45:46.434Z,11.70
2018-05-27T00:48:13.994Z,11.80
2018-05-27T00:50:41.718Z,11.80
2018-05-27T00:53:10.445Z,11.70
2018-05-27T00:55:38.116Z,11.70
2018-05-27T00:58:05.981Z,11.70
2018-05-27T01:00:34.080Z,11.70
2018-05-27T01:03:02.677Z,11.70
2018-05-27T01:05:30.346Z,11.70
2018-05-27T01:07:58.053Z,11.80
2018-05-27T01:10:25.718Z,12.00
2018-05-27T01:12:53.727Z,12.10
2018-05-27T01:15:21.453Z,12.10
2018-05-27T01:17:49.485Z,11.90
2018-05-27T01:20:17.188Z,11.80
2018-05-27T01:22:44.917Z,11.80
2018-05-27T01:25:13.055Z,11.80
2018-05-27T01:27:40.771Z,11.80
2018-05-27T01:30:08.388Z,11.70
2018-05-27T01:32:37.121Z,11.60
2018-05-27T01:35:04.671Z,11.40
2018-05-27T01:37:32.691Z,11.40
2018-05-27T01:40:00.257Z,11.30
2018-05-27T01:42:27.957Z,11.40
2018-05-27T01:44:55.894Z,11.40
2018-05-27T01:47:23.704Z,11.40
2018-05-27T01:49:51.363Z,11.40
2018-05-27T01:52:18.945Z,11.40
2018-05-27T01:54:46.496Z,11.40
2018-05-27T01:57:14.286Z,11.30
2018-05-27T01:59:42.265Z,11.30
2018-05-27T02:02:09.997Z,11.30
2018-05-27T02:04:37.552Z,11.40
2018-05-27T02:07:06.409Z,11.40
2018-05-27T02:09:34.023Z,11.40
2018-05-27T02:12:01.576Z,11.40
2018-05-27T02:14:30.222Z,11.40
2018-05-27T02:16:57.770Z,11.40
2018-05-27T02:19:25.571Z,11.30
2018-05-27T02:21:54.040Z,11.30
2018-05-27T02:24:21.835Z,11.30
2018-05-27T02:26:49.388Z,11.40
2018-05-27T02:29:16.976Z,11.60
2018-05-27T02:31:44.865Z,11.70
2018-05-27T02:34:12.422Z,11.70
2018-05-27T02:36:40.433Z,11.80
2018-05-27T02:39:08.876Z,11.80
2018-05-27T02:41:36.744Z,11.80
2018-05-27T02:44:04.394Z,11.80
2018-05-27T02:46:32.220Z,11.90
2018-05-27T02:48:59.926Z,12.00
2018-05-27T02:51:27.793Z,11.90
2018-05-27T02:53:55.604Z,12.00
2018-05-27T02:56:23.321Z,12.00
2018-05-27T02:58:51.391Z,12.10
2018-05-27T03:01:19.411Z,12.10
2018-05-27T03:03:47.072Z,12.10
2018-05-27T03:06:14.841Z,12.00
2018-05-27T03:08:42.472Z,12.10
2018-05-27T03:11:10.927Z,12.20
2018-05-27T03:13:38.582Z,12.20
2018-05-27T03:16:06.288Z,12.30
2018-05-27T03:18:33.895Z,12.40
2018-05-27T03:21:01.490Z,12.40
2018-05-27T03:23:29.228Z,12.40
2018-05-27T03:25:57.081Z,12.50
2018-05-27T03:28:24.967Z,12.50
2018-05-27T03:30:52.813Z,12.50
2018-05-27T03:33:20.432Z,12.50
2018-05-27T03:35:48.033Z,12.60
2018-05-27T03:38:15.795Z,12.70
2018-05-27T03:40:43.868Z,12.70
2018-05-27T03:43:11.573Z,12.70
2018-05-27T03:45:40.171Z,12.80
2018-05-27T03:48:08.181Z,12.70
2018-05-27T03:50:35.959Z,12.60
2018-05-27T03:53:03.602Z,12.70
2018-05-27T03:55:31.333Z,12.80
2018-05-27T03:57:59.084Z,13.00
2018-05-27T04:00:26.918Z,13.00
2018-05-27T04:02:55.477Z,13.20
2018-05-27T04:05:35.228Z,13.20
2018-05-27T04:08:16.264Z,13.30
2018-05-27T04:10:44.058Z,13.40
2018-05-27T04:13:11.732Z,13.50
2018-05-27T04:15:39.699Z,13.70
2018-05-27T04:18:07.872Z,13.80
2018-05-27T04:20:35.739Z,13.80
2018-05-27T04:23:03.372Z,13.90
2018-05-27T04:25:31.262Z,13.90
2018-05-27T04:27:59.069Z,14.00
2018-05-27T04:30:26.792Z,14.00
2018-05-27T04:32:54.499Z,14.00
2018-05-27T04:35:22.077Z,14.00
2018-05-27T04:37:49.709Z,14.20
2018-05-27T04:40:17.627Z,14.30
2018-05-27T04:42:45.200Z,14.40
2018-05-27T04:45:12.767Z,14.40
2018-05-27T04:47:40.690Z,14.50
2018-05-27T04:50:08.432Z,14.50
2018-05-27T04:52:36.300Z,14.60
2018-05-27T04:55:04.031Z,14.60
2018-05-27T04:57:31.883Z,14.80
2018-05-27T04:59:59.539Z,14.80
2018-05-27T05:02:27.321Z,14.80
2018-05-27T05:04:56.388Z,14.80
2018-05-27T05:07:24.108Z,14.80
2018-05-27T05:09:51.808Z,14.90
2018-05-27T05:12:19.360Z,14.90
2018-05-27T05:14:47.094Z,15.00
2018-05-27T05:17:14.679Z,14.90
2018-05-27T05:19:42.680Z,15.00
2018-05-27T05:22:10.507Z,15.10
2018-05-27T05:24:38.096Z,15.40
2018-05-27T05:27:05.916Z,15.50
2018-05-27T05:29:33.525Z,15.40
2018-05-27T05:32:01.111Z,15.60
2018-05-27T05:34:28.674Z,15.70
2018-05-27T05:36:56.986Z,16.00
2018-05-27T05:39:25.028Z,16.00
2018-05-27T05:41:52.580Z,16.30
2018-05-27T05:44:20.299Z,16.60
2018-05-27T05:46:48.053Z,16.80
2018-05-27T05:49:15.616Z,16.90
2018-05-27T05:51:43.180Z,17.00
2018-05-27T05:54:10.768Z,17.20
2018-05-27T05:56:39.085Z,17.40
2018-05-27T05:59:06.695Z,17.40
2018-05-27T06:01:35.161Z,17.70
2018-05-27T06:04:02.716Z,17.70
2018-05-27T06:06:31.429Z,18.10
2018-05-27T06:08:59.013Z,18.00
2018-05-27T06:11:26.616Z,18.10
2018-05-27T06:13:54.208Z,18.20
2018-05-27T06:16:22.080Z,18.30
2018-05-27T06:18:49.774Z,18.60
2018-05-27T06:21:17.383Z,18.70
2018-05-27T06:23:45.728Z,18.90
2018-05-27T06:26:13.280Z,18.90
2018-05-27T06:28:40.830Z,19.10
2018-05-27T06:31:08.418Z,19.10
2018-05-27T06:33:35.964Z,19.50
2018-05-27T06:36:03.871Z,19.60
2018-05-27T06:38:32.265Z,19.70
2018-05-27T06:40:59.989Z,19.70
2018-05-27T06:43:27.700Z,19.70
2018-05-27T06:45:55.506Z,19.90
2018-05-27T06:48:23.053Z,20.10
2018-05-27T06:50:50.609Z,20.30
2018-05-27T06:53:18.217Z,20.40
2018-05-27T06:55:45.767Z,20.70
2018-05-27T06:58:14.362Z,20.90
2018-05-27T07:00:41.924Z,20.90
2018-05-27T07:03:09.472Z,20.90
2018-05-27T07:05:37.219Z,21.30
2018-05-27T07:08:05.279Z,21.50
2018-05-27T07:10:32.844Z,21.80
2018-05-27T07:13:00.795Z,21.90
2018-05-27T07:15:28.362Z,22.10
2018-05-27T07:17:55.908Z,21.90
2018-05-27T07:20:23.616Z,22.20
2018-05-27T07:22:52.209Z,22.40
2018-05-27T07:25:19.926Z,22.40
2018-05-27T07:27:47.829Z,22.70
2018-05-27T07:30:15.380Z,22.70
2018-05-27T07:32:42.945Z,22.90
2018-05-27T07:35:10.568Z,22.70
2018-05-27T07:37:38.523Z,22.90
2018-05-27T07:40:06.473Z,23.10
2018-05-27T07:42:34.221Z,23.20
2018-05-27T07:45:02.094Z,23.10
2018-05-27T07:47:29.641Z,23.30
2018-05-27T07:49:57.936Z,23.40
2018-05-27T07:52:25.780Z,23.60
2018-05-27T07:54:53.517Z,23.90
2018-05-27T07:57:21.738Z,23.70
2018-05-27T07:59:49.623Z,23.90
2018-05-27T08:02:17.179Z,24.10
2018-05-27T08:04:44.788Z,24.40
2018-05-27T08:07:13.517Z,24.30
2018-05-27T08:09:41.104Z,24.30
2018-05-27T08:12:08.704Z,24.40
2018-05-27T08:14:36.263Z,24.50
2018-05-27T08:17:04.078Z,24.50
2018-05-27T08:19:32.024Z,24.40
2018-05-27T08:21:59.589Z,24.80
2018-05-27T08:24:27.360Z,24.80
2018-05-27T08:26:55.209Z,24.70
2018-05-27T08:29:23.155Z,25.20
2018-05-27T08:31:50.696Z,25.60
2018-05-27T08:34:19.203Z,25.00
2018-05-27T08:36:47.002Z,25.00
2018-05-27T08:39:14.678Z,25.10
2018-05-27T08:41:42.269Z,25.30
2018-05-27T08:44:09.817Z,25.30
2018-05-27T08:46:38.172Z,25.80
2018-05-27T08:49:05.827Z,25.60
2018-05-27T08:51:34.209Z,25.70
2018-05-27T08:54:01.913Z,25.90
2018-05-27T08:56:29.757Z,26.00
2018-05-27T08:58:58.069Z,26.10
2018-05-27T09:01:27.673Z,26.10
2018-05-27T09:03:55.629Z,26.20
2018-05-27T09:06:26.219Z,26.50
2018-05-27T09:08:56.249Z,25.70
2018-05-27T09:11:29.082Z,25.30
2018-05-27T09:13:57.133Z,25.70
2018-05-27T09:16:25.176Z,25.30
2018-05-27T09:18:53.491Z,24.60
2018-05-27T09:21:21.090Z,24.50
2018-05-27T09:23:49.003Z,24.50
2018-05-27T09:26:16.716Z,25.60
2018-05-27T09:28:44.650Z,26.30
2018-05-27T09:31:16.565Z,26.30
2018-05-27T09:33:44.678Z,25.80
2018-05-27T09:36:15.651Z,26.00
2018-05-27T09:38:47.892Z,24.50
2018-05-27T09:41:15.616Z,24.50
2018-05-27T09:43:43.166Z,24.50
2018-05-27T09:46:11.517Z,23.60
2018-05-27T09:48:39.265Z,23.60
2018-05-27T09:51:07.089Z,24.30
2018-05-27T09:53:34.718Z,25.30
2018-05-27T09:56:02.269Z,25.20
2018-05-27T09:58:29.824Z,25.80
2018-05-27T10:00:57.416Z,26.40
2018-05-27T10:03:26.130Z,24.50
2018-05-27T10:05:53.688Z,24.40
2018-05-27T10:08:21.433Z,24.70
2018-05-27T10:10:49.014Z,24.10
2018-05-27T10:13:16.569Z,24.60
2018-05-27T10:15:44.162Z,24.50
2018-05-27T10:18:11.719Z,24.40
2018-05-27T10:20:39.469Z,24.40
2018-05-27T10:23:07.060Z,24.30
2018-05-27T10:25:34.636Z,24.20
2018-05-27T10:28:02.205Z,24.00
2018-05-27T10:30:29.890Z,24.20
2018-05-27T10:32:57.443Z,24.10
2018-05-27T10:35:25.010Z,24.00
2018-05-27T10:37:52.809Z,24.00
2018-05-27T10:40:20.358Z,24.00
2018-05-27T10:42:48.196Z,24.40
2018-05-27T10:45:15.807Z,24.60
2018-05-27T10:47:44.646Z,24.60
2018-05-27T10:50:12.225Z,24.80
2018-05-27T10:52:39.948Z,24.80
2018-05-27T10:55:07.847Z,25.00
2018-05-27T10:57:35.624Z,25.00
2018-05-27T11:00:03.488Z,24.80
2018-05-27T11:02:31.029Z,24.90
2018-05-27T11:04:58.639Z,24.60
2018-05-27T11:07:27.034Z,24.90
2018-05-27T11:09:54.587Z,24.90
2018-05-27T11:12:22.898Z,24.70
2018-05-27T11:14:50.688Z,24.70
2018-05-27T11:17:18.233Z,24.70
2018-05-27T11:19:45.803Z,24.80
2018-05-27T11:22:13.392Z,24.60
2018-05-27T11:24:41.997Z,24.80
2018-05-27T11:27:09.571Z,25.00
2018-05-27T11:29:37.440Z,25.30
2018-05-27T11:32:05.077Z,26.10
2018-05-27T11:34:32.625Z,26.70
2018-05-27T11:37:01.212Z,26.90
2018-05-27T11:39:28.786Z,26.90
2018-05-27T11:41:56.364Z,26.90
2018-05-27T11:44:23.952Z,27.40
2018-05-27T11:46:51.504Z,26.80
2018-05-27T11:49:19.057Z,26.30
2018-05-27T11:51:46.653Z,26.10
2018-05-27T11:54:15.021Z,25.80
2018-05-27T11:56:42.540Z,25.80
2018-05-27T11:59:10.356Z,25.40
2018-05-27T12:01:37.986Z,25.50
2018-05-27T12:04:05.524Z,26.00
2018-05-27T12:06:33.419Z,26.20
2018-05-27T12:09:01.221Z,26.20
2018-05-27T12:11:29.570Z,26.30
2018-05-27T12:13:57.922Z,26.60
2018-05-27T12:16:25.479Z,26.60
2018-05-27T12:18:54.039Z,26.90
2018-05-27T12:21:23.664Z,27.50
2018-05-27T12:23:51.325Z,27.70
2018-05-27T12:26:18.876Z,28.20
2018-05-27T12:28:46.731Z,28.60
2018-05-27T12:31:14.328Z,28.60
2018-05-27T12:33:41.875Z,28.20
2018-05-27T12:36:09.469Z,26.90
2018-05-27T12:38:37.200Z,26.40
2018-05-27T12:41:04.757Z,25.80
2018-05-27T12:43:32.494Z,25.80
2018-05-27T12:46:00.045Z,25.70
2018-05-27T12:48:27.597Z,25.80
2018-05-27T12:50:55.230Z,26.20
2018-05-27T12:53:22.794Z,27.10
2018-05-27T12:55:51.272Z,28.00
2018-05-27T12:58:19.640Z,27.00
2018-05-27T13:00:47.195Z,27.00
2018-05-27T13:03:15.534Z,27.90
2018-05-27T13:05:43.143Z,27.80
2018-05-27T13:08:11.557Z,27.60
2018-05-27T13:10:39.209Z,27.60
2018-05-27T13:13:06.808Z,27.20
2018-05-27T13:15:34.358Z,26.90
2018-05-27T13:18:02.088Z,26.50
2018-05-27T13:20:29.684Z,26.50
2018-05-27T13:22:57.237Z,26.50
2018-05-27T13:25:24.824Z,27.20
2018-05-27T13:27:52.413Z,27.10
2018-05-27T13:30:19.969Z,27.20
2018-05-27T13:32:47.549Z,27.00
2018-05-27T13:35:15.159Z,26.80
2018-05-27T13:37:42.905Z,27.30
2018-05-27T13:40:10.519Z,28.00
2018-05-27T13:42:38.079Z,28.00
2018-05-27T13:45:06.514Z,27.20
2018-05-27T13:47:34.544Z,26.70
2018-05-27T13:50:02.206Z,26.40
2018-05-27T13:52:29.948Z,26.00
2018-05-27T13:54:57.517Z,25.90
2018-05-27T13:57:25.089Z,26.00
2018-05-27T13:59:52.883Z,25.80
2018-05-27T14:02:20.435Z,25.60
2018-05-27T14:04:48.006Z,26.00
2018-05-27T14:07:16.302Z,26.80
2018-05-27T14:09:43.983Z,26.90
2018-05-27T14:12:11.551Z,26.90
2018-05-27T14:14:39.157Z,26.70
2018-05-27T14:17:06.706Z,27.00
2018-05-27T14:19:35.288Z,27.10
2018-05-27T14:22:02.844Z,27.00
2018-05-27T14:24:30.405Z,26.50
2018-05-27T14:26:58.564Z,26.40
2018-05-27T14:29:26.180Z,26.30
2018-05-27T14:31:53.762Z,26.20
2018-05-27T14:34:21.380Z,25.70
2018-05-27T14:36:48.960Z,25.50
2018-05-27T14:39:16.723Z,25.40
2018-05-27T14:41:44.320Z,25.10
2018-05-27T14:44:11.949Z,24.60
2018-05-27T14:46:39.805Z,24.40
2018-05-27T14:49:07.530Z,24.40
2018-05-27T14:51:35.403Z,24.30
2018-05-27T14:54:03.097Z,24.30
2018-05-27T14:56:30.994Z,24.30
2018-05-27T14:58:58.540Z,24.20
2018-05-27T15:01:26.244Z,24.00
2018-05-27T15:03:53.819Z,24.00
2018-05-27T15:06:21.761Z,24.20
2018-05-27T15:08:49.609Z,24.00
2018-05-27T15:11:17.306Z,23.70
2018-05-27T15:13:44.999Z,23.70
2018-05-27T15:16:12.670Z,23.60
2018-05-27T15:18:40.390Z,23.60
2018-05-27T15:21:08.897Z,23.40
2018-05-27T15:23:36.632Z,23.30
2018-05-27T15:26:04.320Z,23.40
2018-05-27T15:28:32.723Z,23.20
2018-05-27T15:31:00.399Z,23.20
2018-05-27T15:33:28.008Z,23.10
2018-05-27T15:35:55.927Z,23.00
2018-05-27T15:38:23.505Z,22.90
2018-05-27T15:40:51.524Z,22.90
2018-05-27T15:43:20.113Z,22.70
2018-05-27T15:45:47.672Z,22.70
2018-05-27T15:48:15.415Z,22.50
2018-05-27T15:50:43.330Z,22.30
2018-05-27T15:53:11.075Z,22.20
2018-05-27T15:55:39.262Z,21.90
2018-05-27T15:58:07.316Z,21.90
2018-05-27T16:00:34.863Z,22.00
2018-05-27T16:03:02.797Z,22.00
2018-05-27T16:05:30.558Z,21.90
2018-05-27T16:07:58.588Z,21.90
2018-05-27T16:10:26.250Z,22.00
2018-05-27T16:12:54.239Z,22.00
2018-05-27T16:15:22.050Z,21.90
2018-05-27T16:17:50.706Z,21.60
2018-05-27T16:20:18.276Z,21.60
2018-05-27T16:22:46.693Z,21.50
2018-05-27T16:25:14.304Z,21.40
2018-05-27T16:27:41.851Z,21.30
2018-05-27T16:30:09.400Z,21.10
2018-05-27T16:32:36.996Z,21.00
2018-05-27T16:35:04.557Z,21.00
2018-05-27T16:37:32.880Z,20.80
2018-05-27T16:40:00.538Z,20.80
2018-05-27T16:42:28.289Z,20.40
2018-05-27T16:44:56.244Z,20.10
2018-05-27T16:47:24.024Z,19.90
2018-05-27T16:49:52.325Z,19.90
2018-05-27T16:52:19.933Z,20.10
2018-05-27T16:54:47.648Z,20.30
2018-05-27T16:57:15.400Z,20.20
2018-05-27T16:59:43.566Z,20.10
2018-05-27T17:02:11.132Z,20.20
2018-05-27T17:04:38.686Z,20.10
2018-05-27T17:07:06.269Z,20.10
2018-05-27T17:09:33.982Z,20.10
2018-05-27T17:12:01.897Z,20.00
2018-05-27T17:14:29.705Z,20.00
2018-05-27T17:16:57.810Z,20.20
2018-05-27T17:19:25.377Z,20.20
2018-05-27T17:21:53.192Z,20.30
2018-05-27T17:24:21.611Z,20.30
2018-05-27T17:26:49.173Z,20.20
2018-05-27T17:29:16.921Z,20.20
2018-05-27T17:31:44.464Z,20.20
2018-05-27T17:34:12.025Z,20.20
2018-05-27T17:36:39.948Z,20.10
2018-05-27T17:39:07.580Z,20.10
2018-05-27T17:41:35.142Z,20.10
2018-05-27T17:44:02.826Z,20.10
2018-05-27T17:46:30.647Z,20.00
2018-05-27T17:48:58.459Z,20.00
2018-05-27T17:51:26.292Z,19.70
2018-05-27T17:53:54.180Z,19.60
2018-05-27T17:56:21.814Z,19.50
2018-05-27T17:58:49.848Z,19.30
2018-05-27T18:01:17.568Z,19.30
2018-05-27T18:03:45.325Z,19.10
2018-05-27T18:06:13.188Z,19.00
2018-05-27T18:08:41.145Z,19.00
2018-05-27T18:11:09.026Z,18.80
2018-05-27T18:13:36.614Z,18.50
2018-05-27T18:16:04.767Z,18.50
2018-05-27T18:18:33.118Z,18.40
2018-05-27T18:21:01.786Z,18.40
2018-05-27T18:23:29.772Z,18.30
2018-05-27T18:25:57.656Z,17.80
2018-05-27T18:28:25.254Z,17.60
2018-05-27T18:30:53.068Z,17.60
2018-05-27T18:33:20.826Z,17.60
2018-05-27T18:35:48.716Z,17.70
2018-05-27T18:38:16.353Z,17.60
2018-05-27T18:40:43.991Z,17.50
2018-05-27T18:43:11.632Z,17.20
2018-05-27T18:45:39.357Z,17.00
2018-05-27T18:48:07.310Z,16.80
2018-05-27T18:50:35.551Z,16.80
2018-05-27T18:53:03.208Z,16.90
2018-05-27T18:55:30.770Z,16.70
2018-05-27T18:57:58.502Z,16.30
2018-05-27T19:00:26.071Z,16.30
2018-05-27T19:02:53.776Z,16.40
2018-05-27T19:05:21.573Z,16.40
2018-05-27T19:07:49.130Z,16.30
2018-05-27T19:10:16.963Z,16.10
2018-05-27T19:12:44.810Z,16.10
2018-05-27T19:15:12.417Z,15.90
2018-05-27T19:17:40.299Z,15.80
2018-05-27T19:20:08.604Z,15.60
2018-05-27T19:22:37.237Z,15.60
2018-05-27T19:25:04.808Z,15.70
2018-05-27T19:27:32.671Z,15.50
2018-05-27T19:30:00.469Z,15.40
2018-05-27T19:32:28.398Z,15.50
2018-05-27T19:34:56.127Z,15.50
2018-05-27T19:37:23.983Z,15.40
2018-05-27T19:39:52.179Z,15.40
2018-05-27T19:42:19.833Z,15.40
2018-05-27T19:44:47.848Z,15.20
2018-05-27T19:47:15.916Z,15.10
2018-05-27T19:49:43.868Z,15.20
2018-05-27T19:52:11.575Z,15.10
2018-05-27T19:54:39.951Z,14.90
2018-05-27T19:57:07.735Z,14.90
2018-05-27T19:59:35.556Z,14.70
2018-05-27T20:02:03.287Z,14.80
2018-05-27T20:04:30.892Z,14.80
2018-05-27T20:06:58.465Z,14.70
2018-05-27T20:09:26.453Z,14.70
2018-05-27T20:11:54.053Z,14.60
2018-05-27T20:14:21.852Z,14.60
2018-05-27T20:16:49.736Z,14.60
2018-05-27T20:19:17.636Z,14.50
2018-05-27T20:21:46.263Z,14.40
2018-05-27T20:24:13.844Z,14.30
2018-05-27T20:26:41.645Z,14.20
2018-05-27T20:29:09.340Z,14.30
2018-05-27T20:31:37.986Z,14.20
2018-05-27T20:34:06.074Z,14.20
2018-05-27T20:36:33.932Z,14.00
2018-05-27T20:39:02.003Z,14.10
2018-05-27T20:41:29.727Z,14.00
2018-05-27T20:43:57.541Z,13.80
2018-05-27T20:46:25.492Z,13.90
2018-05-27T20:48:53.263Z,13.90
2018-05-27T20:51:21.306Z,13.70
2018-05-27T20:53:49.583Z,13.80
2018-05-27T20:56:17.515Z,13.80
2018-05-27T20:58:46.494Z,13.80
2018-05-27T21:01:14.404Z,13.70
2018-05-27T21:03:42.681Z,13.40
2018-05-27T21:06:10.772Z,13.30
2018-05-27T21:08:39.641Z,13.40
2018-05-27T21:11:08.083Z,13.40
2018-05-27T21:13:36.192Z,13.50
2018-05-27T21:16:04.470Z,13.40
2018-05-27T21:18:32.946Z,13.50
2018-05-27T21:21:01.017Z,13.50
2018-05-27T21:23:29.121Z,13.50
2018-05-27T21:25:56.962Z,13.30
2018-05-27T21:28:24.860Z,13.30
2018-05-27T21:30:52.584Z,13.20
2018-05-27T21:33:20.178Z,13.30
2018-05-27T21:35:47.786Z,13.30
2018-05-27T21:38:15.517Z,13.20
2018-05-27T21:40:44.167Z,13.10
2018-05-27T21:43:11.711Z,13.10
2018-05-27T21:45:39.470Z,13.00
2018-05-27T21:48:07.364Z,12.60
2018-05-27T21:50:34.968Z,12.70
2018-05-27T21:53:02.841Z,12.70
2018-05-27T21:55:30.799Z,12.90
2018-05-27T21:57:59.413Z,12.90
2018-05-27T22:00:27.305Z,12.80
2018-05-27T22:02:54.895Z,12.90
2018-05-27T22:05:22.684Z,12.80
2018-05-27T22:07:50.670Z,12.80
2018-05-27T22:10:18.621Z,12.70
2018-05-27T22:12:46.215Z,12.60
2018-05-27T22:15:14.044Z,12.60
2018-05-27T22:17:41.957Z,12.70
2018-05-27T22:20:09.522Z,12.70
2018-05-27T22:22:37.224Z,12.70
2018-05-27T22:25:05.341Z,12.70
2018-05-27T22:27:33.216Z,12.60
2018-05-27T22:30:00.952Z,12.40
2018-05-27T22:32:28.608Z,12.30
2018-05-27T22:34:56.236Z,12.30
2018-05-27T22:37:24.621Z,12.40
2018-05-27T22:39:52.327Z,12.40
2018-05-27T22:42:19.912Z,12.30
2018-05-27T22:44:47.610Z,12.30
2018-05-27T22:47:15.460Z,12.30
2018-05-27T22:49:43.140Z,12.30
2018-05-27T22:52:10.721Z,12.30
2018-05-27T22:54:38.413Z,12.10
2018-05-27T22:57:05.961Z,12.10
2018-05-27T22:59:33.839Z,12.00
2018-05-27T23:02:01.492Z,11.90
2018-05-27T23:04:29.359Z,11.90
2018-05-27T23:06:57.086Z,12.00
2018-05-27T23:09:25.279Z,11.90
2018-05-27T23:11:53.107Z,11.90
2018-05-27T23:14:20.985Z,11.90
2018-05-27T23:16:48.730Z,11.90
2018-05-27T23:19:16.424Z,11.80
2018-05-27T23:21:44.348Z,11.90
2018-05-27T23:24:12.075Z,11.90
2018-05-27T23:26:39.739Z,11.90
2018-05-27T23:29:07.747Z,11.90
2018-05-27T23:31:35.869Z,11.80
2018-05-27T23:34:03.732Z,11.70
2018-05-27T23:36:31.300Z,11.80
2018-05-27T23:38:59.055Z,11.60
2018-05-27T23:41:26.669Z,11.50
2018-05-27T23:43:54.601Z,11.70
2018-05-27T23:46:22.343Z,11.70
2018-05-27T23:48:50.273Z,11.70
2018-05-27T23:51:17.938Z,11.70
2018-05-27T23:53:45.884Z,11.70
2018-05-27T23:56:14.484Z,11.70
2018-05-27T23:58:42.153Z,11.70
